createdAt,value
2018-09-24T00:00:44.028Z,99.90
2018-09-24T00:03:12.259Z,99.90
2018-09-24T00:05:40.503Z,99.90
2018-09-24T00:08:08.761Z,99.90
2018-09-24T00:10:37.039Z,99.90
2018-09-24T00:13:05.273Z,99.90
2018-09-24T00:15:33.516Z,99.90
2018-09-24T00:18:01.771Z,99.90
2018-09-24T00:20:30.004Z,99.90
2018-09-24T00:22:58.231Z,99.90
2018-09-24T00:25:26.478Z,99.90
2018-09-24T00:27:54.720Z,99.90
2018-09-24T00:30:22.961Z,99.90
2018-09-24T00:32:51.196Z,99.90
2018-09-24T00:35:19.480Z,99.90
2018-09-24T00:37:47.735Z,99.90
2018-09-24T00:40:15.967Z,99.90
2018-09-24T00:42:44.211Z,99.90
2018-09-24T00:45:12.447Z,99.90
2018-09-24T00:47:40.769Z,99.90
2018-09-24T00:50:08.983Z,99.90
2018-09-24T00:52:37.215Z,99.90
2018-09-24T00:55:05.447Z,99.90
2018-09-24T00:57:33.732Z,99.90
2018-09-24T01:00:01.969Z,99.90
2018-09-24T01:02:30.207Z,99.90
2018-09-24T01:04:58.443Z,99.90
2018-09-24T01:07:26.975Z,99.90
2018-09-24T01:09:55.244Z,99.90
2018-09-24T01:12:23.483Z,99.90
2018-09-24T01:14:51.698Z,99.90
2018-09-24T01:17:20.018Z,99.90
2018-09-24T01:19:48.248Z,99.90
2018-09-24T01:22:16.492Z,99.90
2018-09-24T01:24:44.739Z,99.90
2018-09-24T01:27:12.991Z,99.90
2018-09-24T01:29:41.240Z,99.90
2018-09-24T01:32:09.483Z,99.90
2018-09-24T01:34:37.710Z,99.90
2018-09-24T01:37:06.108Z,99.90
2018-09-24T01:39:34.351Z,99.90
2018-09-24T01:42:02.622Z,99.90
2018-09-24T01:44:30.839Z,99.90
2018-09-24T01:46:59.055Z,99.90
2018-09-24T01:49:27.287Z,99.90
2018-09-24T01:51:55.536Z,99.90
2018-09-24T01:54:28.362Z,99.90
2018-09-24T01:56:56.587Z,99.90
2018-09-24T01:59:25.062Z,99.90
2018-09-24T02:01:53.291Z,99.90
2018-09-24T02:04:21.527Z,99.90
2018-09-24T02:06:49.759Z,99.90
2018-09-24T02:09:18.004Z,99.90
2018-09-24T02:11:46.224Z,99.90
2018-09-24T02:14:14.450Z,99.90
2018-09-24T02:16:42.689Z,99.90
2018-09-24T02:19:10.931Z,99.90
2018-09-24T02:21:39.139Z,99.90
2018-09-24T02:24:07.370Z,99.90
2018-09-24T02:26:35.620Z,99.90
2018-09-24T02:29:03.859Z,99.90
2018-09-24T02:31:39.760Z,99.90
2018-09-24T02:34:08.879Z,99.90
2018-09-24T02:36:37.132Z,99.90
2018-09-24T02:39:07.164Z,99.90
2018-09-24T02:41:35.567Z,99.90
2018-09-24T02:44:03.796Z,99.90
2018-09-24T02:46:32.024Z,99.90
2018-09-24T02:49:02.456Z,99.90
2018-09-24T02:51:31.562Z,99.90
2018-09-24T02:53:59.798Z,99.90
2018-09-24T02:56:28.022Z,99.90
2018-09-24T02:58:56.323Z,99.90
2018-09-24T03:01:25.430Z,99.90
2018-09-24T03:03:53.655Z,99.90
2018-09-24T03:06:21.894Z,99.90
2018-09-24T03:08:50.134Z,99.90
2018-09-24T03:11:18.376Z,99.90
2018-09-24T03:13:46.599Z,99.90
2018-09-24T03:16:14.873Z,99.90
2018-09-24T03:18:43.251Z,99.90
2018-09-24T03:21:11.505Z,99.90
2018-09-24T03:23:39.739Z,99.90
2018-09-24T03:26:08.031Z,99.90
2018-09-24T03:28:36.250Z,99.90
2018-09-24T03:31:04.483Z,99.90
2018-09-24T03:33:34.531Z,99.90
2018-09-24T03:36:02.755Z,99.90
2018-09-24T03:38:31.004Z,99.90
2018-09-24T03:40:59.219Z,99.90
2018-09-24T03:43:27.467Z,99.90
2018-09-24T03:45:55.707Z,99.90
2018-09-24T03:48:23.979Z,99.90
2018-09-24T03:50:52.229Z,99.90
2018-09-24T03:53:20.480Z,99.90
2018-09-24T03:55:48.698Z,99.90
2018-09-24T03:58:16.925Z,99.70
2018-09-24T04:00:45.158Z,99.70
2018-09-24T04:03:13.400Z,99.90
2018-09-24T04:05:47.012Z,99.90
2018-09-24T04:08:20.547Z,99.90
2018-09-24T04:10:54.285Z,99.90
2018-09-24T04:13:28.003Z,99.90
2018-09-24T04:16:01.702Z,99.90
2018-09-24T04:18:35.392Z,99.90
2018-09-24T04:21:09.026Z,99.90
2018-09-24T04:23:42.814Z,99.90
2018-09-24T04:26:16.603Z,99.90
2018-09-24T04:28:50.306Z,99.90
2018-09-24T04:31:23.923Z,99.90
2018-09-24T04:33:57.643Z,99.90
2018-09-24T04:36:31.339Z,99.90
2018-09-24T04:39:05.106Z,99.90
2018-09-24T04:41:38.835Z,99.90
2018-09-24T04:44:12.546Z,99.90
2018-09-24T04:46:46.359Z,99.90
2018-09-24T04:49:19.965Z,99.90
2018-09-24T04:51:53.675Z,99.90
2018-09-24T04:54:27.463Z,99.90
2018-09-24T04:57:01.187Z,99.90
2018-09-24T04:59:34.855Z,99.90
2018-09-24T05:02:08.584Z,99.90
2018-09-24T05:04:42.388Z,99.90
2018-09-24T05:07:16.203Z,99.90
2018-09-24T05:09:49.794Z,99.90
2018-09-24T05:12:23.495Z,99.90
2018-09-24T05:14:57.315Z,99.90
2018-09-24T05:17:31.031Z,99.90
2018-09-24T05:20:04.767Z,99.90
2018-09-24T05:22:38.532Z,99.90
2018-09-24T05:25:12.338Z,99.90
2018-09-24T05:27:46.061Z,99.90
2018-09-24T05:30:19.783Z,99.90
2018-09-24T05:32:53.502Z,99.90
2018-09-24T05:35:27.255Z,99.90
2018-09-24T05:38:01.008Z,99.90
2018-09-24T05:40:34.756Z,99.90
2018-09-24T05:43:08.535Z,99.90
2018-09-24T05:45:42.259Z,99.90
2018-09-24T05:48:16.041Z,99.90
2018-09-24T05:50:49.784Z,99.90
2018-09-24T05:53:23.455Z,99.90
2018-09-24T05:55:57.052Z,99.90
2018-09-24T05:58:30.908Z,99.90
2018-09-24T06:01:04.512Z,99.90
2018-09-24T06:03:38.303Z,99.90
2018-09-24T06:06:12.067Z,99.90
2018-09-24T06:08:45.843Z,99.90
2018-09-24T06:11:19.616Z,99.90
2018-09-24T06:13:53.310Z,99.90
2018-09-24T06:16:27.029Z,99.90
2018-09-24T06:19:00.917Z,99.90
2018-09-24T06:21:34.653Z,99.90
2018-09-24T06:24:08.339Z,99.90
2018-09-24T06:26:42.176Z,99.50
2018-09-24T06:29:15.910Z,99.90
2018-09-24T06:31:49.535Z,99.70
2018-09-24T06:34:23.313Z,99.10
2018-09-24T06:36:56.943Z,99.30
2018-09-24T06:39:30.676Z,98.80
2018-09-24T06:42:04.404Z,98.50
2018-09-24T06:44:38.091Z,98.80
2018-09-24T06:47:11.823Z,97.90
2018-09-24T06:49:45.638Z,97.90
2018-09-24T06:52:19.299Z,97.70
2018-09-24T06:54:53.089Z,97.40
2018-09-24T06:57:26.819Z,97.50
2018-09-24T07:00:00.639Z,97.50
2018-09-24T07:02:34.296Z,96.80
2018-09-24T07:05:08.000Z,96.70
2018-09-24T07:07:41.840Z,96.80
2018-09-24T07:10:15.645Z,96.60
2018-09-24T07:12:49.339Z,95.90
2018-09-24T07:15:23.155Z,95.50
2018-09-24T07:17:56.961Z,95.10
2018-09-24T07:20:30.701Z,95.40
2018-09-24T07:23:04.419Z,95.10
2018-09-24T07:25:38.195Z,94.20
2018-09-24T07:28:12.024Z,93.90
2018-09-24T07:30:45.699Z,93.10
2018-09-24T07:33:19.565Z,93.00
2018-09-24T07:35:53.183Z,92.80
2018-09-24T07:38:26.909Z,92.70
2018-09-24T07:41:00.604Z,92.80
2018-09-24T07:43:34.497Z,92.20
2018-09-24T07:46:08.128Z,92.40
2018-09-24T07:48:41.825Z,92.60
2018-09-24T07:51:15.647Z,92.50
2018-09-24T07:53:49.472Z,92.10
2018-09-24T07:56:23.180Z,92.40
2018-09-24T07:58:56.931Z,92.30
2018-09-24T08:01:30.608Z,91.50
2018-09-24T08:04:04.376Z,91.80
2018-09-24T08:06:38.178Z,91.40
2018-09-24T08:09:12.899Z,91.60
2018-09-24T08:11:46.691Z,90.80
2018-09-24T08:14:20.431Z,90.70
2018-09-24T08:16:54.131Z,88.40
2018-09-24T08:19:27.916Z,89.20
2018-09-24T08:22:01.728Z,89.10
2018-09-24T08:24:35.425Z,87.80
2018-09-24T08:27:09.141Z,88.80
2018-09-24T08:29:42.849Z,87.80
2018-09-24T08:32:16.639Z,89.00
2018-09-24T08:34:50.421Z,90.30
2018-09-24T08:37:24.276Z,90.90
2018-09-24T08:39:57.935Z,91.80
2018-09-24T08:42:31.670Z,92.00
2018-09-24T08:45:05.470Z,92.40
2018-09-24T08:47:39.279Z,92.60
2018-09-24T08:50:13.091Z,93.20
2018-09-24T08:52:46.747Z,93.60
2018-09-24T08:55:20.488Z,94.20
2018-09-24T08:57:54.294Z,94.20
2018-09-24T09:00:27.956Z,92.10
2018-09-24T09:03:01.712Z,91.90
2018-09-24T09:05:35.411Z,89.50
2018-09-24T09:08:09.157Z,86.20
2018-09-24T09:10:42.847Z,82.90
2018-09-24T09:13:16.644Z,83.70
2018-09-24T09:15:50.370Z,86.40
2018-09-24T09:18:24.084Z,88.00
2018-09-24T09:20:57.859Z,90.00
2018-09-24T09:23:31.599Z,91.60
2018-09-24T09:26:05.352Z,92.30
2018-09-24T09:28:39.053Z,93.60
2018-09-24T09:31:13.126Z,94.80
2018-09-24T09:33:46.748Z,95.20
2018-09-24T09:36:20.480Z,95.70
2018-09-24T09:38:54.188Z,96.00
2018-09-24T09:41:28.004Z,93.30
2018-09-24T09:44:01.663Z,90.40
2018-09-24T09:46:35.260Z,84.10
2018-09-24T09:49:08.871Z,79.40
2018-09-24T09:51:42.474Z,74.60
2018-09-24T09:54:16.173Z,70.40
2018-09-24T09:56:49.944Z,65.80
2018-09-24T09:59:23.563Z,63.60
2018-09-24T10:01:57.356Z,60.90
2018-09-24T10:04:30.947Z,60.60
2018-09-24T10:07:04.718Z,60.60
2018-09-24T10:09:38.555Z,59.20
2018-09-24T10:12:12.343Z,60.60
2018-09-24T10:14:46.060Z,60.90
2018-09-24T10:17:19.887Z,62.20
2018-09-24T10:19:53.652Z,62.40
2018-09-24T10:22:27.523Z,62.50
2018-09-24T10:25:01.172Z,63.50
2018-09-24T10:27:35.012Z,63.60
2018-09-24T10:30:08.813Z,64.40
2018-09-24T10:32:49.229Z,65.00
2018-09-24T10:35:22.923Z,62.90
2018-09-24T10:38:03.824Z,64.60
2018-09-24T10:40:38.171Z,65.00
2018-09-24T10:43:12.446Z,64.00
2018-09-24T10:45:46.420Z,69.00
2018-09-24T10:48:20.168Z,70.80
2018-09-24T10:50:53.999Z,74.20
2018-09-24T10:53:27.742Z,79.30
2018-09-24T10:56:01.327Z,83.20
2018-09-24T10:58:35.041Z,85.00
2018-09-24T11:01:08.787Z,88.40
2018-09-24T11:03:42.623Z,89.10
2018-09-24T11:06:16.384Z,90.10
2018-09-24T11:08:50.231Z,90.70
2018-09-24T11:11:24.015Z,90.70
2018-09-24T11:13:57.848Z,89.70
2018-09-24T11:16:31.681Z,89.60
2018-09-24T11:19:05.308Z,88.90
2018-09-24T11:21:39.065Z,86.20
2018-09-24T11:24:12.863Z,84.30
2018-09-24T11:26:46.700Z,81.80
2018-09-24T11:29:20.477Z,82.00
2018-09-24T11:31:54.082Z,83.70
2018-09-24T11:34:27.903Z,83.40
2018-09-24T11:37:01.619Z,83.70
2018-09-24T11:39:35.375Z,85.30
2018-09-24T11:42:09.221Z,85.10
2018-09-24T11:44:42.911Z,85.30
2018-09-24T11:47:16.635Z,83.30
2018-09-24T11:49:50.440Z,85.50
2018-09-24T11:52:24.224Z,85.70
2018-09-24T11:54:57.911Z,88.30
2018-09-24T11:57:31.755Z,86.40
2018-09-24T12:00:05.357Z,86.80
2018-09-24T12:02:38.912Z,85.70
2018-09-24T12:05:12.869Z,84.20
2018-09-24T12:07:46.463Z,81.30
2018-09-24T12:10:20.048Z,81.80
2018-09-24T12:12:53.568Z,80.60
2018-09-24T12:15:27.195Z,79.90
2018-09-24T12:18:00.932Z,78.10
2018-09-24T12:20:34.748Z,79.80
2018-09-24T12:23:08.469Z,75.90
2018-09-24T12:25:42.071Z,75.70
2018-09-24T12:28:15.735Z,77.10
2018-09-24T12:30:50.511Z,80.50
2018-09-24T12:33:24.325Z,84.20
2018-09-24T12:35:58.071Z,87.60
2018-09-24T12:38:31.940Z,89.90
2018-09-24T12:41:05.639Z,90.30
2018-09-24T12:43:39.446Z,91.00
2018-09-24T12:46:13.247Z,91.30
2018-09-24T12:48:47.039Z,93.20
2018-09-24T12:51:20.871Z,93.30
2018-09-24T12:53:54.615Z,93.90
2018-09-24T12:56:28.276Z,93.90
2018-09-24T12:59:02.040Z,94.50
2018-09-24T13:01:35.779Z,94.40
2018-09-24T13:04:09.499Z,93.70
2018-09-24T13:06:43.220Z,93.00
2018-09-24T13:09:16.954Z,93.70
2018-09-24T13:11:50.522Z,93.50
2018-09-24T13:14:24.079Z,94.10
2018-09-24T13:16:57.810Z,94.10
2018-09-24T13:19:31.604Z,93.50
2018-09-24T13:22:05.309Z,94.10
2018-09-24T13:24:39.031Z,93.60
2018-09-24T13:27:12.763Z,93.40
2018-09-24T13:29:46.395Z,93.00
2018-09-24T13:32:20.025Z,92.90
2018-09-24T13:34:53.782Z,93.20
2018-09-24T13:37:27.570Z,91.80
2018-09-24T13:40:01.303Z,91.10
2018-09-24T13:42:35.094Z,90.80
2018-09-24T13:45:08.791Z,89.00
2018-09-24T13:47:42.445Z,88.00
2018-09-24T13:50:16.089Z,86.80
2018-09-24T13:52:49.776Z,87.20
2018-09-24T13:55:23.342Z,89.70
2018-09-24T13:57:57.040Z,90.90
2018-09-24T14:00:30.828Z,91.70
2018-09-24T14:03:04.564Z,92.00
2018-09-24T14:05:38.450Z,93.30
2018-09-24T14:08:12.254Z,94.50
2018-09-24T14:10:45.995Z,95.20
2018-09-24T14:13:19.751Z,95.10
2018-09-24T14:15:53.415Z,96.10
2018-09-24T14:18:27.225Z,96.60
2018-09-24T14:21:00.807Z,96.80
2018-09-24T14:30:44.123Z,94.80
2018-09-24T14:33:17.936Z,91.30
2018-09-24T14:35:51.640Z,91.30
2018-09-24T14:38:25.464Z,92.30
2018-09-24T14:40:59.231Z,93.80
2018-09-24T14:43:32.831Z,94.40
2018-09-24T14:46:06.410Z,94.30
2018-09-24T14:48:40.168Z,94.30
2018-09-24T14:51:13.875Z,94.40
2018-09-24T14:53:47.623Z,93.80
2018-09-24T14:56:21.383Z,94.10
2018-09-24T14:58:55.111Z,94.60
2018-09-24T15:01:28.887Z,94.40
2018-09-24T15:04:02.614Z,93.40
2018-09-24T15:06:36.390Z,93.10
2018-09-24T15:09:12.159Z,93.90
2018-09-24T15:11:45.912Z,93.60
2018-09-24T15:14:19.664Z,93.60
2018-09-24T15:16:53.343Z,93.90
2018-09-24T15:19:27.043Z,94.40
2018-09-24T15:22:00.741Z,94.50
2018-09-24T15:24:34.476Z,95.30
2018-09-24T15:27:08.287Z,96.00
2018-09-24T15:29:42.017Z,96.30
2018-09-24T15:32:15.688Z,96.40
2018-09-24T15:34:49.294Z,95.90
2018-09-24T15:37:22.863Z,96.00
2018-09-24T15:39:56.607Z,95.20
2018-09-24T15:42:30.701Z,95.00
2018-09-24T15:45:04.436Z,94.00
2018-09-24T15:47:38.085Z,92.90
2018-09-24T15:50:11.827Z,92.10
2018-09-24T15:52:45.532Z,91.90
2018-09-24T15:55:19.354Z,92.20
2018-09-24T15:57:53.152Z,92.90
2018-09-24T16:00:26.872Z,92.40
2018-09-24T16:03:00.622Z,92.90
2018-09-24T16:05:34.303Z,92.20
2018-09-24T16:08:08.143Z,92.10
2018-09-24T16:10:41.926Z,92.50
2018-09-24T16:13:15.463Z,92.60
2018-09-24T16:15:49.400Z,93.20
2018-09-24T16:18:22.991Z,92.30
2018-09-24T16:20:56.811Z,92.70
2018-09-24T16:23:30.611Z,93.00
2018-09-24T16:26:04.298Z,93.80
2018-09-24T16:28:38.027Z,93.10
2018-09-24T16:31:11.719Z,93.50
2018-09-24T16:33:45.573Z,94.30
2018-09-24T16:36:19.316Z,94.10
2018-09-24T16:38:52.989Z,93.30
2018-09-24T16:41:26.788Z,93.40
2018-09-24T16:44:00.550Z,92.20
2018-09-24T16:46:34.520Z,91.60
2018-09-24T16:49:08.119Z,91.70
2018-09-24T16:51:41.847Z,91.10
2018-09-24T16:54:15.502Z,91.50
2018-09-24T16:56:49.128Z,91.70
2018-09-24T16:59:23.004Z,91.60
2018-09-24T17:01:56.639Z,91.30
2018-09-24T17:04:30.247Z,91.40
2018-09-24T17:07:04.163Z,91.50
2018-09-24T17:09:37.908Z,91.70
2018-09-24T17:12:12.048Z,92.90
2018-09-24T17:14:45.683Z,93.00
2018-09-24T17:17:19.307Z,92.60
2018-09-24T17:19:53.019Z,92.50
2018-09-24T17:22:26.659Z,93.50
2018-09-24T17:25:00.419Z,92.90
2018-09-24T17:27:34.139Z,92.70
2018-09-24T17:30:07.948Z,93.60
2018-09-24T17:32:41.772Z,92.30
2018-09-24T17:35:15.524Z,93.20
2018-09-24T17:37:49.292Z,93.30
2018-09-24T17:40:23.115Z,92.40
2018-09-24T17:42:56.868Z,92.40
2018-09-24T17:45:30.792Z,92.30
2018-09-24T17:48:04.451Z,92.30
2018-09-24T17:50:38.223Z,92.50
2018-09-24T17:53:12.011Z,92.70
2018-09-24T17:55:45.707Z,92.80
2018-09-24T17:58:19.588Z,93.00
2018-09-24T18:00:53.278Z,93.40
2018-09-24T18:03:27.279Z,93.20
2018-09-24T18:06:00.853Z,92.80
2018-09-24T18:08:34.495Z,92.50
2018-09-24T18:11:08.443Z,92.80
2018-09-24T18:13:42.135Z,92.60
2018-09-24T18:16:15.744Z,92.80
2018-09-24T18:18:49.563Z,93.00
2018-09-24T18:21:23.353Z,93.20
2018-09-24T18:23:57.243Z,92.80
2018-09-24T18:26:30.926Z,93.10
2018-09-24T18:29:04.752Z,93.50
2018-09-24T18:31:38.561Z,93.90
2018-09-24T18:34:12.261Z,93.70
2018-09-24T18:36:46.024Z,93.60
2018-09-24T18:39:19.797Z,93.40
2018-09-24T18:41:53.604Z,93.30
2018-09-24T18:44:27.570Z,93.20
2018-09-24T18:47:01.310Z,93.20
2018-09-24T18:49:35.371Z,93.10
2018-09-24T18:52:09.151Z,93.30
2018-09-24T18:54:42.852Z,93.70
2018-09-24T18:57:16.710Z,93.30
2018-09-24T18:59:50.358Z,93.20
2018-09-24T19:02:24.352Z,93.20
2018-09-24T19:04:58.059Z,93.60
2018-09-24T19:07:31.811Z,93.90
2018-09-24T19:10:05.481Z,93.80
2018-09-24T19:12:39.423Z,93.50
2018-09-24T19:15:13.100Z,93.20
2018-09-24T19:17:46.603Z,92.60
2018-09-24T19:20:20.459Z,93.00
2018-09-24T19:22:54.080Z,92.60
2018-09-24T19:25:27.673Z,93.00
2018-09-24T19:28:01.270Z,93.10
2018-09-24T19:30:34.819Z,93.40
2018-09-24T19:33:08.469Z,93.50
2018-09-24T19:35:42.031Z,93.10
2018-09-24T19:38:15.834Z,93.30
2018-09-24T19:40:49.643Z,93.30
2018-09-24T19:43:23.339Z,93.50
2018-09-24T19:45:57.047Z,93.20
2018-09-24T19:48:30.846Z,93.20
2018-09-24T19:51:04.603Z,93.00
2018-09-24T19:53:38.229Z,92.80
2018-09-24T19:56:11.971Z,92.80
2018-09-24T19:58:45.826Z,93.30
2018-09-24T20:03:55.215Z,94.00
2018-09-24T20:06:28.961Z,93.50
2018-09-24T20:09:02.723Z,93.40
2018-09-24T20:11:36.436Z,93.20
2018-09-24T20:14:09.979Z,93.30
2018-09-24T20:16:43.749Z,93.60
2018-09-24T20:19:17.564Z,93.80
2018-09-24T20:21:51.364Z,93.70
2018-09-24T20:24:25.056Z,93.60
2018-09-24T20:26:58.802Z,93.60
2018-09-24T20:29:32.558Z,93.70
2018-09-24T20:32:06.280Z,94.10
2018-09-24T20:34:40.096Z,94.30
2018-09-24T20:37:13.879Z,94.40
2018-09-24T20:39:47.698Z,94.80
2018-09-24T20:42:21.519Z,94.80
2018-09-24T20:44:55.198Z,94.60
2018-09-24T20:47:28.885Z,94.80
2018-09-24T20:50:02.608Z,95.00
2018-09-24T20:52:36.371Z,95.20
2018-09-24T20:55:10.111Z,95.40
2018-09-24T20:57:43.860Z,95.60
2018-09-24T21:00:17.635Z,95.40
2018-09-24T21:02:51.351Z,95.20
2018-09-24T21:05:25.167Z,95.10
2018-09-24T21:07:59.067Z,95.10
2018-09-24T21:10:32.753Z,95.10
2018-09-24T21:13:06.592Z,95.10
2018-09-24T21:15:40.400Z,95.20
2018-09-24T21:18:14.153Z,95.70
2018-09-24T21:20:47.796Z,95.20
2018-09-24T21:23:21.604Z,95.70
2018-09-24T21:25:55.279Z,95.40
2018-09-24T21:28:28.855Z,95.60
2018-09-24T21:31:02.506Z,95.90
2018-09-24T21:33:36.090Z,96.10
2018-09-24T21:36:09.824Z,96.40
2018-09-24T21:38:43.572Z,96.50
2018-09-24T21:41:17.322Z,96.50
2018-09-24T21:43:51.024Z,96.60
2018-09-24T21:46:25.136Z,96.70
2018-09-24T21:48:58.631Z,96.60
2018-09-24T21:51:32.367Z,96.40
2018-09-24T21:54:06.125Z,96.90
2018-09-24T21:56:39.855Z,97.40
2018-09-24T21:59:13.673Z,96.90
2018-09-24T22:01:47.347Z,96.90
2018-09-24T22:04:21.089Z,97.00
2018-09-24T22:06:54.859Z,96.90
2018-09-24T22:09:28.595Z,97.20
2018-09-24T22:12:02.360Z,97.30
2018-09-24T22:14:36.078Z,97.40
2018-09-24T22:17:09.779Z,97.50
2018-09-24T22:19:43.595Z,97.60
2018-09-24T22:22:17.292Z,97.60
2018-09-24T22:24:51.022Z,97.60
2018-09-24T22:27:24.832Z,97.50
2018-09-24T22:29:58.464Z,97.50
2018-09-24T22:32:32.192Z,97.50
2018-09-24T22:35:05.924Z,97.40
2018-09-24T22:37:39.647Z,97.50
2018-09-24T22:40:13.369Z,97.70
2018-09-24T22:42:47.088Z,97.70
2018-09-24T22:45:20.854Z,97.70
2018-09-24T22:47:54.682Z,98.00
2018-09-24T22:50:28.452Z,98.30
2018-09-24T22:53:02.205Z,98.90
2018-09-24T22:55:35.852Z,99.00
2018-09-24T22:58:09.520Z,99.00
2018-09-24T23:00:43.292Z,98.80
2018-09-24T23:03:17.104Z,98.70
2018-09-24T23:05:50.913Z,98.70
2018-09-24T23:08:24.608Z,98.90
2018-09-24T23:10:58.379Z,98.90
2018-09-24T23:13:32.122Z,98.90
2018-09-24T23:16:05.835Z,99.00
2018-09-24T23:18:39.517Z,98.90
2018-09-24T23:21:13.287Z,98.60
2018-09-24T23:23:47.032Z,98.90
2018-09-24T23:26:20.750Z,99.00
2018-09-24T23:28:54.541Z,99.30
2018-09-24T23:31:28.210Z,99.50
2018-09-24T23:34:01.811Z,99.60
2018-09-24T23:36:35.426Z,99.60
2018-09-24T23:39:09.091Z,99.60
2018-09-24T23:41:42.820Z,99.60
2018-09-24T23:44:16.562Z,99.50
2018-09-24T23:46:50.377Z,99.60
2018-09-24T23:49:24.082Z,99.70
2018-09-24T23:51:57.828Z,99.80
2018-09-24T23:54:31.625Z,99.90
2018-09-24T23:57:05.415Z,99.90
2018-09-24T23:59:39.211Z,99.90
